Terminal Aerodrome Forecast
Issued by NWS

Current Version | Previous Version | Text Only | Print | Product List | Glossary On
Versions: 1 2 3 4 5 6 7 8 9 10 11 12 13 14 15 16 17 18 19 20 21 22 23 24 25 26 27 28 29 30 31 32 33 34 35 36 37
000
FTUS41 KOKX 281911 AAA
TAFGON
TAF AMD
KGON 281911Z 2819/2918 20010KT P6SM SCT250
     FM282300 20005KT P6SM SCT250
     FM290600 18005KT 6SM BR FEW005 OVC150
     FM290800 VRB04KT 2SM BR SCT005 BKN100
     FM291000 VRB04KT 2SM BR VCSH SCT005 BKN040
      TEMPO 2910/2914 4SM SHRA BR BKN005 BKN040=

USA.gov is the U.S. government's official web portal to all federal, state and local government web resources and services.